^^

Meteo Aereoporti Centro-Italia

 

 
LIRZ - Perugia S.Egidio (208 m.)
Dati ricevuti: 19/07/2018 17:50
Qualche nuvola
Qualche nuvola
 Vento da SW
Vento: SW 17 km/h
TEMPERATURA: 33°C
P.to di Rugiada: 12°C
Umidità: 28%
Pressione: 1013 hPa
Nuvole: Qualche nuvola
Visibilità: 10 km
Dettagli Nuvole: Qualche nuvola 1219 m
2018/07/19 15:50 LIRZ 191550Z 23009KT 9999 FEW040 33/12 Q1013
 
LIPY - Ancona Falconara (12 m.)
Dati ricevuti: 19/07/2018 17:50
Sereno
Sereno
 Vento da NE
Vento: NE 9 km/h
TEMPERATURA: 31°C
P.to di Rugiada: 14°C
Umidità: 35%
Pressione: 1011 hPa
Condizioni generali: Sereno
Visibilità: oltre 10 km
2018/07/19 15:50 LIPY 191550Z 05005KT 020V090 CAVOK 31/14 Q1011
 
LIPR - Rimini Miramare (12 m.)
Dati ricevuti: 19/07/2018 18:45
Qualche nuvola
Qualche nuvola
 Vento da E
Vento: E 9 km/h
TEMPERATURA: 30°C
Indice di Calore: 32°C
P.to di Rugiada: 20°C
Umidità: 55%
Pressione: 1011 hPa
Nuvole: Qualche nuvola
Visibilità: 10 km
Dettagli Nuvole: Qualche nuvola 762 m
2018/07/19 16:45 LIPR 191645Z 10005KT 9999 FEW025 30/20 Q1011
 
LIRF - Roma Fiumicino (2 m.)
Dati ricevuti: 19/07/2018 18:50
Sereno
Sereno
 Vento da W
Vento: W 11 km/h
TEMPERATURA: 27°C
Indice di Calore: 29°C
P.to di Rugiada: 21°C
Umidità: 70%
Pressione: 1013 hPa
Condizioni generali: Sereno
Visibilità: oltre 10 km
2018/07/19 16:50 LIRF 191650Z 27006KT 240V300 CAVOK 27/21 Q1013 NOSIG
 
LIRA - Roma Ciampino (129 m.)
Dati ricevuti: 19/07/2018 18:50
Sereno
Sereno
 Vento da W
Vento: W 9 km/h
TEMPERATURA: 30°C
Indice di Calore: 29°C
P.to di Rugiada: 15°C
Umidità: 40%
Pressione: 1014 hPa
Condizioni generali: Sereno
Visibilità: oltre 10 km
2018/07/19 16:50 LIRA 191650Z 26005KT 220V310 CAVOK 30/15 Q1014
 
LIRU - Roma Urbe (17 m.)
Dati ricevuti: 19/07/2018 17:50
Sereno
Sereno
 Vento da WSW
Vento: WSW 17 km/h
TEMPERATURA: 30°C
P.to di Rugiada: 13°C
Umidità: 35%
Pressione: 1013 hPa
Condizioni generali: Sereno
Visibilità: oltre 10 km
2018/07/19 15:50 LIRU 191550Z 24009KT CAVOK 30/13 Q1013
 
LIVF - Frontone (570 m.)
Dati ricevuti: 16/07/2018 20:55
Dati non aggiornati
Poco nuvoloso
Poco nuvoloso
 Vento da NNW
Vento: NNW 20 km/h
TEMPERATURA: 22°C
P.to di Rugiada: 17°C
Umidità: 73%
Pressione: 1012 hPa
Nuvole: Poco nuvoloso
Visibilità: 10 km
Dettagli Nuvole: Poco nuvoloso 427 m
2018/07/16 18:55 LIVF 161855Z 33011KT 9999 SCT014CB 22/17 Q1012
 
LIRQ - Firenze Peretola (40 m.)
Dati ricevuti: 19/07/2018 18:50
Sereno
Sereno
 Vento da WSW
Vento: WSW 17 km/h
TEMPERATURA: 32°C
P.to di Rugiada: 14°C
Umidità: 33%
Pressione: 1012 hPa
Condizioni generali: Sereno
Visibilità: oltre 10 km
2018/07/19 16:50 LIRQ 191650Z 24009KT 210V280 CAVOK 32/14 Q1012
 
LIBP - Pescara (10 m.)
Dati ricevuti: 19/07/2018 17:50
Qualche nuvola
Qualche nuvola
 Vento da NE
Vento: NE 11 km/h
TEMPERATURA: 31°C
Indice di Calore: 33°C
P.to di Rugiada: 19°C
Umidità: 49%
Pressione: 1012 hPa
Nuvole: Qualche nuvola
Visibilità: 10 km
Dettagli Nuvole: Qualche nuvola 3048 m
2018/07/19 15:50 LIBP 191550Z 05006KT 9999 FEW100 31/19 Q1012
 
LIRV - Viterbo (300 m.)
Dati ricevuti: 19/07/2018 17:55
Sereno
Sereno
 Vento da direzione variabile
Vento: direzione variabile 0 km/h
TEMPERATURA: 30°C
P.to di Rugiada: 14°C
Umidità: 38%
Pressione: 1015 hPa
Condizioni generali: Sereno
Visibilità: oltre 10 km
2018/07/19 15:55 LIRV 191555Z /////KT CAVOK 30/14 Q1015
 
LIQN - Rieti (389 m.)
Dati ricevuti: 19/07/2018 17:50
Sereno
Sereno
 Vento da SW
Vento: SW 19 km/h
TEMPERATURA: 30°C
P.to di Rugiada: 13°C
Umidità: 35%
Pressione: 1013 hPa
Condizioni generali: Sereno
Visibilità: oltre 10 km
2018/07/19 15:50 LIQN 191550Z 23010KT CAVOK 30/13 Q1013
 
LIRG - Guidonia -RM- (88 m.)
Dati ricevuti: 19/07/2018 17:55
Sereno
Sereno
 Vento da WSW
Vento: WSW 11 km/h
TEMPERATURA: 30°C
Indice di Calore: 30°C
P.to di Rugiada: 16°C
Umidità: 43%
Pressione: 1014 hPa
Condizioni generali: Sereno
Visibilità: oltre 10 km
2018/07/19 15:55 LIRG 191555Z 25006KT CAVOK 30/16 Q1014
 
LIRK - Terminillo -RI-(1874 m.)
Dati ricevuti: 08/06/2018 02:55
Dati non aggiornati

 Vento da direzione variabile
Vento: direzione variabile 0 km/h
2018/06/08 00:55 LIRK 080055Z AUTO /////KT //// ///// Q////
 
LIPK - Forlì (27 m.)
Dati ricevuti: 19/07/2018 17:50
Qualche nuvola
Qualche nuvola
 Vento da ENE
Vento: ENE 9 km/h
TEMPERATURA: 34°C
Indice di Calore: 36°C
P.to di Rugiada: 19°C
Umidità: 41%
Pressione: 1011 hPa
Nuvole: Qualche nuvola
Visibilità: 10 km
Dettagli Nuvole: Qualche nuvola 914 m
2018/07/19 15:50 LIPK 191550Z 07005KT 9999 FEW030 34/19 Q1011
 
LIRS - Grosseto (5 m.)
Dati ricevuti: 19/07/2018 17:55
Sereno
Sereno
 Vento da SW
Vento: SW 19 km/h
TEMPERATURA: 28°C
Indice di Calore: 29°C
P.to di Rugiada: 18°C
Umidità: 55%
Pressione: 1013 hPa
Condizioni generali: Sereno
Visibilità: oltre 10 km
2018/07/19 15:55 LIRS 191555Z 23010KT CAVOK 28/18 Q1013
 
LIRP - Pisa S.Giusto (2 m.)
Dati ricevuti: 19/07/2018 18:45
Qualche nuvola
Qualche nuvola
 Vento da W
Vento: W 15 km/h
TEMPERATURA: 27°C
Indice di Calore: 29°C
P.to di Rugiada: 20°C
Umidità: 66%
Pressione: 1013 hPa
Nuvole: Qualche nuvola
Visibilità: 10 km
Dettagli Nuvole: Qualche nuvola 1524 m
2018/07/19 16:45 LIRP 191645Z 27008KT 9999 FEW050 27/20 Q1013 NOSIG